sensor_id;sensor_type;location;lat;lon;timestamp;P1;durP1;ratioP1;P2;durP2;ratioP2
48516;SDS011;34310;51.904;4.256;2022-12-10T00:01:39;30.60;;;22.75;;
48516;SDS011;34310;51.904;4.256;2022-12-10T00:04:09;29.88;;;22.23;;
48516;SDS011;34310;51.904;4.256;2022-12-10T00:06:37;31.90;;;23.73;;
48516;SDS011;34310;51.904;4.256;2022-12-10T00:09:06;29.15;;;21.92;;
48516;SDS011;34310;51.904;4.256;2022-12-10T00:11:38;30.05;;;22.30;;
48516;SDS011;34310;51.904;4.256;2022-12-10T00:14:06;32.08;;;23.35;;
48516;SDS011;34310;51.904;4.256;2022-12-10T00:16:33;28.83;;;21.35;;
48516;SDS011;34310;51.904;4.256;2022-12-10T00:19:01;30.23;;;22.15;;
48516;SDS011;34310;51.904;4.256;2022-12-10T00:21:31;28.95;;;22.17;;
48516;SDS011;34310;51.904;4.256;2022-12-10T00:23:59;28.90;;;21.25;;
48516;SDS011;34310;51.904;4.256;2022-12-10T00:26:32;30.25;;;22.23;;
48516;SDS011;34310;51.904;4.256;2022-12-10T00:29:04;28.45;;;21.20;;
48516;SDS011;34310;51.904;4.256;2022-12-10T00:31:33;29.60;;;21.58;;
48516;SDS011;34310;51.904;4.256;2022-12-10T00:34:03;30.05;;;23.00;;
48516;SDS011;34310;51.904;4.256;2022-12-10T00:36:33;30.50;;;22.20;;
48516;SDS011;34310;51.904;4.256;2022-12-10T00:39:03;28.13;;;21.02;;
48516;SDS011;34310;51.904;4.256;2022-12-10T00:41:31;29.23;;;21.75;;
48516;SDS011;34310;51.904;4.256;2022-12-10T00:43:58;29.58;;;21.35;;
48516;SDS011;34310;51.904;4.256;2022-12-10T00:46:26;29.30;;;21.35;;
48516;SDS011;34310;51.904;4.256;2022-12-10T00:48:54;28.23;;;21.40;;
48516;SDS011;34310;51.904;4.256;2022-12-10T00:51:23;30.40;;;22.40;;
48516;SDS011;34310;51.904;4.256;2022-12-10T00:53:52;32.10;;;22.33;;
48516;SDS011;34310;51.904;4.256;2022-12-10T00:56:21;29.88;;;21.63;;
48516;SDS011;34310;51.904;4.256;2022-12-10T00:58:51;28.52;;;20.98;;
48516;SDS011;34310;51.904;4.256;2022-12-10T01:01:26;29.08;;;20.65;;
48516;SDS011;34310;51.904;4.256;2022-12-10T01:04:00;28.98;;;21.58;;
48516;SDS011;34310;51.904;4.256;2022-12-10T01:06:36;29.92;;;21.98;;
48516;SDS011;34310;51.904;4.256;2022-12-10T01:09:10;30.52;;;21.85;;
48516;SDS011;34310;51.904;4.256;2022-12-10T01:11:39;32.13;;;22.38;;
48516;SDS011;34310;51.904;4.256;2022-12-10T01:14:09;31.33;;;21.85;;
48516;SDS011;34310;51.904;4.256;2022-12-10T01:16:38;27.95;;;20.75;;
48516;SDS011;34310;51.904;4.256;2022-12-10T01:19:06;28.80;;;20.63;;
48516;SDS011;34310;51.904;4.256;2022-12-10T01:21:33;30.40;;;21.25;;
48516;SDS011;34310;51.904;4.256;2022-12-10T01:24:01;29.90;;;22.10;;
48516;SDS011;34310;51.904;4.256;2022-12-10T01:26:30;30.00;;;21.52;;
48516;SDS011;34310;51.904;4.256;2022-12-10T01:28:59;29.00;;;21.27;;
48516;SDS011;34310;51.904;4.256;2022-12-10T01:31:28;30.88;;;22.10;;
48516;SDS011;34310;51.904;4.256;2022-12-10T01:33:57;30.35;;;21.70;;
48516;SDS011;34310;51.904;4.256;2022-12-10T01:36:26;31.38;;;22.30;;
48516;SDS011;34310;51.904;4.256;2022-12-10T01:38:56;31.08;;;22.73;;
48516;SDS011;34310;51.904;4.256;2022-12-10T01:41:29;33.80;;;22.67;;
48516;SDS011;34310;51.904;4.256;2022-12-10T01:44:03;31.25;;;22.08;;
48516;SDS011;34310;51.904;4.256;2022-12-10T01:46:44;31.83;;;22.27;;
48516;SDS011;34310;51.904;4.256;2022-12-10T01:49:14;31.35;;;22.05;;
48516;SDS011;34310;51.904;4.256;2022-12-10T01:51:51;32.38;;;22.05;;
48516;SDS011;34310;51.904;4.256;2022-12-10T01:56:50;30.35;;;21.90;;
48516;SDS011;34310;51.904;4.256;2022-12-10T01:59:55;28.35;;;20.67;;
48516;SDS011;34310;51.904;4.256;2022-12-10T02:02:30;32.22;;;22.95;;
48516;SDS011;34310;51.904;4.256;2022-12-10T02:05:14;29.93;;;20.93;;
48516;SDS011;34310;51.904;4.256;2022-12-10T02:07:54;29.33;;;20.88;;
48516;SDS011;34310;51.904;4.256;2022-12-10T02:13:13;27.40;;;18.63;;
48516;SDS011;34310;51.904;4.256;2022-12-10T02:15:52;29.00;;;20.75;;
48516;SDS011;34310;51.904;4.256;2022-12-10T02:18:56;27.20;;;19.38;;
48516;SDS011;34310;51.904;4.256;2022-12-10T02:21:48;26.95;;;18.95;;
48516;SDS011;34310;51.904;4.256;2022-12-10T02:24:22;27.77;;;19.05;;
48516;SDS011;34310;51.904;4.256;2022-12-10T02:27:02;27.13;;;19.30;;
48516;SDS011;34310;51.904;4.256;2022-12-10T02:29:31;26.52;;;19.30;;
48516;SDS011;34310;51.904;4.256;2022-12-10T02:32:02;24.98;;;18.23;;
48516;SDS011;34310;51.904;4.256;2022-12-10T02:34:42;27.02;;;19.83;;
48516;SDS011;34310;51.904;4.256;2022-12-10T02:37:24;27.92;;;19.42;;
48516;SDS011;34310;51.904;4.256;2022-12-10T02:39:56;26.50;;;19.30;;
48516;SDS011;34310;51.904;4.256;2022-12-10T02:42:28;26.05;;;18.98;;
48516;SDS011;34310;51.904;4.256;2022-12-10T02:45:01;25.48;;;18.80;;
48516;SDS011;34310;51.904;4.256;2022-12-10T02:47:30;24.65;;;18.67;;
48516;SDS011;34310;51.904;4.256;2022-12-10T02:49:57;27.63;;;20.73;;
48516;SDS011;34310;51.904;4.256;2022-12-10T02:52:26;27.10;;;20.17;;
48516;SDS011;34310;51.904;4.256;2022-12-10T02:54:53;26.08;;;18.83;;
48516;SDS011;34310;51.904;4.256;2022-12-10T03:00:13;23.70;;;18.00;;
48516;SDS011;34310;51.904;4.256;2022-12-10T03:05:33;26.33;;;19.17;;
48516;SDS011;34310;51.904;4.256;2022-12-10T03:08:13;23.67;;;18.42;;
48516;SDS011;34310;51.904;4.256;2022-12-10T03:10:50;26.42;;;19.25;;
48516;SDS011;34310;51.904;4.256;2022-12-10T03:14:27;25.27;;;18.50;;
48516;SDS011;34310;51.904;4.256;2022-12-10T03:16:37;23.85;;;17.95;;
48516;SDS011;34310;51.904;4.256;2022-12-10T03:19:13;25.13;;;18.85;;
48516;SDS011;34310;51.904;4.256;2022-12-10T03:21:44;25.48;;;19.10;;
48516;SDS011;34310;51.904;4.256;2022-12-10T03:24:16;25.73;;;18.92;;
48516;SDS011;34310;51.904;4.256;2022-12-10T03:26:45;24.75;;;19.02;;
48516;SDS011;34310;51.904;4.256;2022-12-10T03:29:15;22.50;;;17.42;;
48516;SDS011;34310;51.904;4.256;2022-12-10T03:31:50;25.95;;;18.80;;
48516;SDS011;34310;51.904;4.256;2022-12-10T03:34:18;25.25;;;18.63;;
48516;SDS011;34310;51.904;4.256;2022-12-10T03:36:47;25.27;;;18.25;;
48516;SDS011;34310;51.904;4.256;2022-12-10T03:39:15;24.17;;;18.55;;
48516;SDS011;34310;51.904;4.256;2022-12-10T03:41:43;23.60;;;18.13;;
48516;SDS011;34310;51.904;4.256;2022-12-10T03:44:11;24.67;;;18.27;;
48516;SDS011;34310;51.904;4.256;2022-12-10T03:46:38;24.77;;;18.15;;
48516;SDS011;34310;51.904;4.256;2022-12-10T03:49:05;24.65;;;18.73;;
48516;SDS011;34310;51.904;4.256;2022-12-10T03:51:33;23.40;;;18.13;;
48516;SDS011;34310;51.904;4.256;2022-12-10T03:54:00;24.63;;;18.17;;
48516;SDS011;34310;51.904;4.256;2022-12-10T03:56:27;23.77;;;17.98;;
48516;SDS011;34310;51.904;4.256;2022-12-10T03:58:55;24.00;;;17.42;;
48516;SDS011;34310;51.904;4.256;2022-12-10T04:01:22;21.50;;;16.52;;
48516;SDS011;34310;51.904;4.256;2022-12-10T04:03:49;24.25;;;17.73;;
48516;SDS011;34310;51.904;4.256;2022-12-10T04:06:18;24.38;;;18.13;;
48516;SDS011;34310;51.904;4.256;2022-12-10T04:08:46;21.73;;;16.88;;
48516;SDS011;34310;51.904;4.256;2022-12-10T04:11:22;21.80;;;16.63;;
48516;SDS011;34310;51.904;4.256;2022-12-10T04:13:50;23.15;;;17.40;;
48516;SDS011;34310;51.904;4.256;2022-12-10T04:16:36;21.70;;;17.00;;
48516;SDS011;34310;51.904;4.256;2022-12-10T04:19:05;21.60;;;16.80;;
48516;SDS011;34310;51.904;4.256;2022-12-10T04:21:35;22.63;;;17.42;;
48516;SDS011;34310;51.904;4.256;2022-12-10T04:24:26;21.85;;;16.70;;
48516;SDS011;34310;51.904;4.256;2022-12-10T04:27:25;22.20;;;16.70;;
48516;SDS011;34310;51.904;4.256;2022-12-10T04:29:57;21.05;;;16.17;;
48516;SDS011;34310;51.904;4.256;2022-12-10T04:32:27;19.15;;;15.00;;
48516;SDS011;34310;51.904;4.256;2022-12-10T04:34:55;19.67;;;15.48;;
48516;SDS011;34310;51.904;4.256;2022-12-10T04:37:23;19.33;;;16.08;;
48516;SDS011;34310;51.904;4.256;2022-12-10T04:39:51;19.88;;;15.77;;
48516;SDS011;34310;51.904;4.256;2022-12-10T04:42:18;20.50;;;15.95;;
48516;SDS011;34310;51.904;4.256;2022-12-10T04:44:47;19.73;;;15.52;;
48516;SDS011;34310;51.904;4.256;2022-12-10T04:47:15;18.30;;;14.63;;
48516;SDS011;34310;51.904;4.256;2022-12-10T04:49:42;17.45;;;14.10;;
48516;SDS011;34310;51.904;4.256;2022-12-10T04:52:10;18.63;;;14.25;;
48516;SDS011;34310;51.904;4.256;2022-12-10T04:54:39;17.27;;;13.75;;
48516;SDS011;34310;51.904;4.256;2022-12-10T04:57:07;17.40;;;13.32;;
48516;SDS011;34310;51.904;4.256;2022-12-10T04:59:35;18.08;;;14.02;;
48516;SDS011;34310;51.904;4.256;2022-12-10T05:02:03;16.55;;;12.90;;
48516;SDS011;34310;51.904;4.256;2022-12-10T05:04:31;17.45;;;13.73;;
48516;SDS011;34310;51.904;4.256;2022-12-10T05:06:59;15.10;;;12.23;;
48516;SDS011;34310;51.904;4.256;2022-12-10T05:09:27;16.27;;;12.27;;
48516;SDS011;34310;51.904;4.256;2022-12-10T05:11:54;15.20;;;11.75;;
48516;SDS011;34310;51.904;4.256;2022-12-10T05:14:21;15.68;;;12.80;;
48516;SDS011;34310;51.904;4.256;2022-12-10T05:16:49;14.70;;;12.10;;
48516;SDS011;34310;51.904;4.256;2022-12-10T05:19:17;14.05;;;11.75;;
48516;SDS011;34310;51.904;4.256;2022-12-10T05:21:49;14.52;;;11.75;;
48516;SDS011;34310;51.904;4.256;2022-12-10T05:24:35;14.63;;;11.35;;
48516;SDS011;34310;51.904;4.256;2022-12-10T05:27:03;13.52;;;11.05;;
48516;SDS011;34310;51.904;4.256;2022-12-10T05:29:31;14.40;;;11.57;;
48516;SDS011;34310;51.904;4.256;2022-12-10T05:32:00;13.90;;;12.15;;
48516;SDS011;34310;51.904;4.256;2022-12-10T05:34:28;14.32;;;11.43;;
48516;SDS011;34310;51.904;4.256;2022-12-10T05:36:55;13.75;;;11.15;;
48516;SDS011;34310;51.904;4.256;2022-12-10T05:39:23;13.63;;;11.63;;
48516;SDS011;34310;51.904;4.256;2022-12-10T05:41:50;13.15;;;11.00;;
48516;SDS011;34310;51.904;4.256;2022-12-10T05:44:17;12.82;;;10.77;;
48516;SDS011;34310;51.904;4.256;2022-12-10T05:46:45;12.32;;;10.43;;
48516;SDS011;34310;51.904;4.256;2022-12-10T05:49:12;11.73;;;10.52;;
48516;SDS011;34310;51.904;4.256;2022-12-10T05:51:39;13.30;;;10.90;;
48516;SDS011;34310;51.904;4.256;2022-12-10T05:54:07;12.35;;;10.90;;
48516;SDS011;34310;51.904;4.256;2022-12-10T05:56:36;13.40;;;11.02;;
48516;SDS011;34310;51.904;4.256;2022-12-10T05:59:04;13.10;;;10.77;;
48516;SDS011;34310;51.904;4.256;2022-12-10T06:01:39;12.80;;;10.95;;
48516;SDS011;34310;51.904;4.256;2022-12-10T06:04:08;12.15;;;10.85;;
48516;SDS011;34310;51.904;4.256;2022-12-10T06:06:37;13.23;;;11.00;;
48516;SDS011;34310;51.904;4.256;2022-12-10T06:09:06;12.63;;;11.13;;
48516;SDS011;34310;51.904;4.256;2022-12-10T06:11:36;11.68;;;10.38;;
48516;SDS011;34310;51.904;4.256;2022-12-10T06:14:04;13.05;;;10.82;;
48516;SDS011;34310;51.904;4.256;2022-12-10T06:16:31;12.63;;;10.70;;
48516;SDS011;34310;51.904;4.256;2022-12-10T06:18:58;12.48;;;10.50;;
48516;SDS011;34310;51.904;4.256;2022-12-10T06:21:26;12.27;;;10.05;;
48516;SDS011;34310;51.904;4.256;2022-12-10T06:23:53;10.73;;;9.25;;
48516;SDS011;34310;51.904;4.256;2022-12-10T06:26:21;12.60;;;10.60;;
48516;SDS011;34310;51.904;4.256;2022-12-10T06:28:50;12.82;;;10.55;;
48516;SDS011;34310;51.904;4.256;2022-12-10T06:31:19;11.93;;;10.48;;
48516;SDS011;34310;51.904;4.256;2022-12-10T06:33:47;12.18;;;10.48;;
48516;SDS011;34310;51.904;4.256;2022-12-10T06:36:15;11.55;;;9.93;;
48516;SDS011;34310;51.904;4.256;2022-12-10T06:38:44;12.48;;;10.85;;
48516;SDS011;34310;51.904;4.256;2022-12-10T06:41:13;11.10;;;9.93;;
48516;SDS011;34310;51.904;4.256;2022-12-10T06:43:41;12.68;;;10.80;;
48516;SDS011;34310;51.904;4.256;2022-12-10T06:46:10;12.43;;;10.65;;
48516;SDS011;34310;51.904;4.256;2022-12-10T06:48:39;12.85;;;11.00;;
48516;SDS011;34310;51.904;4.256;2022-12-10T06:51:07;12.25;;;10.45;;
48516;SDS011;34310;51.904;4.256;2022-12-10T06:53:36;12.65;;;10.57;;
48516;SDS011;34310;51.904;4.256;2022-12-10T06:56:04;12.20;;;10.63;;
48516;SDS011;34310;51.904;4.256;2022-12-10T06:58:34;12.52;;;10.52;;
48516;SDS011;34310;51.904;4.256;2022-12-10T07:01:02;11.50;;;9.95;;
48516;SDS011;34310;51.904;4.256;2022-12-10T07:03:31;13.57;;;11.55;;
48516;SDS011;34310;51.904;4.256;2022-12-10T07:05:58;12.50;;;10.90;;
48516;SDS011;34310;51.904;4.256;2022-12-10T07:08:27;12.40;;;10.45;;
48516;SDS011;34310;51.904;4.256;2022-12-10T07:10:54;13.60;;;10.98;;
48516;SDS011;34310;51.904;4.256;2022-12-10T07:13:22;12.45;;;10.45;;
48516;SDS011;34310;51.904;4.256;2022-12-10T07:15:55;11.93;;;10.63;;
48516;SDS011;34310;51.904;4.256;2022-12-10T07:18:24;12.35;;;10.25;;
48516;SDS011;34310;51.904;4.256;2022-12-10T07:20:51;12.32;;;10.85;;
48516;SDS011;34310;51.904;4.256;2022-12-10T07:23:19;13.70;;;10.80;;
48516;SDS011;34310;51.904;4.256;2022-12-10T07:25:47;13.10;;;10.98;;
48516;SDS011;34310;51.904;4.256;2022-12-10T07:28:14;11.70;;;9.88;;
48516;SDS011;34310;51.904;4.256;2022-12-10T07:30:42;12.20;;;9.70;;
48516;SDS011;34310;51.904;4.256;2022-12-10T07:33:09;10.18;;;9.07;;
48516;SDS011;34310;51.904;4.256;2022-12-10T07:35:39;11.27;;;9.45;;
48516;SDS011;34310;51.904;4.256;2022-12-10T07:38:14;11.85;;;9.82;;
48516;SDS011;34310;51.904;4.256;2022-12-10T07:40:41;10.43;;;9.13;;
48516;SDS011;34310;51.904;4.256;2022-12-10T07:43:08;10.60;;;9.02;;
48516;SDS011;34310;51.904;4.256;2022-12-10T07:45:35;10.52;;;8.95;;
48516;SDS011;34310;51.904;4.256;2022-12-10T07:48:03;10.95;;;9.23;;
48516;SDS011;34310;51.904;4.256;2022-12-10T07:50:30;10.98;;;9.35;;
48516;SDS011;34310;51.904;4.256;2022-12-10T07:52:57;11.80;;;9.50;;
48516;SDS011;34310;51.904;4.256;2022-12-10T07:55:25;10.68;;;9.57;;
48516;SDS011;34310;51.904;4.256;2022-12-10T07:57:52;10.10;;;9.00;;
48516;SDS011;34310;51.904;4.256;2022-12-10T08:00:19;11.55;;;9.27;;
48516;SDS011;34310;51.904;4.256;2022-12-10T08:02:47;11.85;;;9.75;;
48516;SDS011;34310;51.904;4.256;2022-12-10T08:05:14;10.80;;;9.20;;
48516;SDS011;34310;51.904;4.256;2022-12-10T08:07:41;12.35;;;10.18;;
48516;SDS011;34310;51.904;4.256;2022-12-10T08:10:09;11.45;;;9.73;;
48516;SDS011;34310;51.904;4.256;2022-12-10T08:12:36;10.25;;;9.02;;
48516;SDS011;34310;51.904;4.256;2022-12-10T08:15:04;11.85;;;9.98;;
48516;SDS011;34310;51.904;4.256;2022-12-10T08:17:31;10.57;;;9.25;;
48516;SDS011;34310;51.904;4.256;2022-12-10T08:20:01;10.48;;;8.90;;
48516;SDS011;34310;51.904;4.256;2022-12-10T08:22:29;10.98;;;9.13;;
48516;SDS011;34310;51.904;4.256;2022-12-10T08:24:56;11.02;;;9.63;;
48516;SDS011;34310;51.904;4.256;2022-12-10T08:27:23;10.68;;;9.20;;
48516;SDS011;34310;51.904;4.256;2022-12-10T08:29:51;11.57;;;10.00;;
48516;SDS011;34310;51.904;4.256;2022-12-10T08:32:18;9.80;;;8.68;;
48516;SDS011;34310;51.904;4.256;2022-12-10T08:34:45;10.55;;;9.30;;
48516;SDS011;34310;51.904;4.256;2022-12-10T08:37:13;11.05;;;9.65;;
48516;SDS011;34310;51.904;4.256;2022-12-10T08:39:41;11.10;;;9.43;;
48516;SDS011;34310;51.904;4.256;2022-12-10T08:42:08;10.75;;;9.63;;
48516;SDS011;34310;51.904;4.256;2022-12-10T08:44:35;11.40;;;9.27;;
48516;SDS011;34310;51.904;4.256;2022-12-10T08:47:02;11.18;;;9.60;;
48516;SDS011;34310;51.904;4.256;2022-12-10T08:49:30;11.25;;;9.57;;
48516;SDS011;34310;51.904;4.256;2022-12-10T08:51:57;10.13;;;9.00;;
48516;SDS011;34310;51.904;4.256;2022-12-10T08:54:25;13.32;;;10.13;;
48516;SDS011;34310;51.904;4.256;2022-12-10T08:56:52;11.95;;;9.85;;
48516;SDS011;34310;51.904;4.256;2022-12-10T08:59:19;12.07;;;10.00;;
48516;SDS011;34310;51.904;4.256;2022-12-10T09:01:47;12.38;;;9.80;;
48516;SDS011;34310;51.904;4.256;2022-12-10T09:04:21;11.00;;;9.40;;
48516;SDS011;34310;51.904;4.256;2022-12-10T09:06:48;12.63;;;10.13;;
48516;SDS011;34310;51.904;4.256;2022-12-10T09:09:16;12.50;;;10.20;;
48516;SDS011;34310;51.904;4.256;2022-12-10T09:11:43;13.48;;;10.90;;
48516;SDS011;34310;51.904;4.256;2022-12-10T09:14:12;12.93;;;10.05;;
48516;SDS011;34310;51.904;4.256;2022-12-10T09:16:39;12.15;;;10.05;;
48516;SDS011;34310;51.904;4.256;2022-12-10T09:19:08;12.57;;;10.20;;
48516;SDS011;34310;51.904;4.256;2022-12-10T09:21:38;13.25;;;10.70;;
48516;SDS011;34310;51.904;4.256;2022-12-10T09:24:06;12.68;;;10.32;;
48516;SDS011;34310;51.904;4.256;2022-12-10T09:26:33;12.48;;;10.60;;
48516;SDS011;34310;51.904;4.256;2022-12-10T09:29:00;13.18;;;10.55;;
48516;SDS011;34310;51.904;4.256;2022-12-10T09:31:28;12.00;;;10.30;;
48516;SDS011;34310;51.904;4.256;2022-12-10T09:33:55;13.70;;;10.93;;
48516;SDS011;34310;51.904;4.256;2022-12-10T09:36:22;15.18;;;11.57;;
48516;SDS011;34310;51.904;4.256;2022-12-10T09:38:58;13.57;;;10.63;;
48516;SDS011;34310;51.904;4.256;2022-12-10T09:46:55;14.00;;;11.32;;
48516;SDS011;34310;51.904;4.256;2022-12-10T09:52:12;21.17;;;12.30;;
48516;SDS011;34310;51.904;4.256;2022-12-10T09:54:44;16.85;;;13.00;;
48516;SDS011;34310;51.904;4.256;2022-12-10T09:57:20;17.05;;;12.65;;
48516;SDS011;34310;51.904;4.256;2022-12-10T10:00:21;18.90;;;13.18;;
48516;SDS011;34310;51.904;4.256;2022-12-10T10:02:49;18.00;;;12.52;;
48516;SDS011;34310;51.904;4.256;2022-12-10T10:05:22;19.13;;;13.88;;
48516;SDS011;34310;51.904;4.256;2022-12-10T10:07:58;18.63;;;12.55;;
48516;SDS011;34310;51.904;4.256;2022-12-10T10:10:29;19.40;;;12.75;;
48516;SDS011;34310;51.904;4.256;2022-12-10T10:13:49;18.25;;;12.90;;
48516;SDS011;34310;51.904;4.256;2022-12-10T10:15:55;18.23;;;12.52;;
48516;SDS011;34310;51.904;4.256;2022-12-10T10:21:07;19.00;;;13.52;;
48516;SDS011;34310;51.904;4.256;2022-12-10T10:23:46;18.58;;;14.20;;
48516;SDS011;34310;51.904;4.256;2022-12-10T10:26:15;18.40;;;14.02;;
48516;SDS011;34310;51.904;4.256;2022-12-10T10:28:42;24.75;;;15.68;;
48516;SDS011;34310;51.904;4.256;2022-12-10T10:31:34;20.10;;;14.60;;
48516;SDS011;34310;51.904;4.256;2022-12-10T10:34:01;25.02;;;15.82;;
48516;SDS011;34310;51.904;4.256;2022-12-10T10:36:32;23.27;;;16.38;;
48516;SDS011;34310;51.904;4.256;2022-12-10T10:39:13;23.80;;;17.27;;
48516;SDS011;34310;51.904;4.256;2022-12-10T10:41:57;26.50;;;18.35;;
48516;SDS011;34310;51.904;4.256;2022-12-10T10:44:26;25.15;;;17.90;;
48516;SDS011;34310;51.904;4.256;2022-12-10T10:47:23;24.88;;;17.50;;
48516;SDS011;34310;51.904;4.256;2022-12-10T10:50:00;25.17;;;16.80;;
48516;SDS011;34310;51.904;4.256;2022-12-10T10:52:32;25.23;;;17.88;;
48516;SDS011;34310;51.904;4.256;2022-12-10T10:55:03;22.02;;;17.15;;
48516;SDS011;34310;51.904;4.256;2022-12-10T10:57:34;25.52;;;17.98;;
48516;SDS011;34310;51.904;4.256;2022-12-10T11:00:05;24.63;;;17.92;;
48516;SDS011;34310;51.904;4.256;2022-12-10T11:02:43;26.65;;;19.15;;
48516;SDS011;34310;51.904;4.256;2022-12-10T11:05:19;26.55;;;18.27;;
48516;SDS011;34310;51.904;4.256;2022-12-10T11:08:04;25.83;;;17.73;;
48516;SDS011;34310;51.904;4.256;2022-12-10T11:10:46;24.38;;;17.25;;
48516;SDS011;34310;51.904;4.256;2022-12-10T11:13:25;26.75;;;17.55;;
48516;SDS011;34310;51.904;4.256;2022-12-10T11:15:57;25.73;;;18.48;;
48516;SDS011;34310;51.904;4.256;2022-12-10T11:18:35;29.33;;;19.05;;
48516;SDS011;34310;51.904;4.256;2022-12-10T11:23:54;28.25;;;19.33;;
48516;SDS011;34310;51.904;4.256;2022-12-10T11:31:56;29.85;;;19.30;;
48516;SDS011;34310;51.904;4.256;2022-12-10T11:34:56;28.42;;;19.85;;
48516;SDS011;34310;51.904;4.256;2022-12-10T11:40:19;28.65;;;20.13;;
48516;SDS011;34310;51.904;4.256;2022-12-10T11:51:52;30.08;;;20.67;;
48516;SDS011;34310;51.904;4.256;2022-12-10T11:54:31;32.10;;;21.33;;
48516;SDS011;34310;51.904;4.256;2022-12-10T11:57:06;30.05;;;21.45;;
48516;SDS011;34310;51.904;4.256;2022-12-10T11:59:52;32.47;;;21.17;;
48516;SDS011;34310;51.904;4.256;2022-12-10T12:05:24;34.53;;;22.73;;
48516;SDS011;34310;51.904;4.256;2022-12-10T12:11:01;32.72;;;22.67;;
48516;SDS011;34310;51.904;4.256;2022-12-10T12:14:08;32.67;;;22.52;;
48516;SDS011;34310;51.904;4.256;2022-12-10T12:19:43;32.83;;;21.77;;
48516;SDS011;34310;51.904;4.256;2022-12-10T12:22:27;34.40;;;22.90;;
48516;SDS011;34310;51.904;4.256;2022-12-10T12:25:02;32.63;;;22.50;;
48516;SDS011;34310;51.904;4.256;2022-12-10T12:30:15;33.15;;;21.60;;
48516;SDS011;34310;51.904;4.256;2022-12-10T12:35:38;35.95;;;22.55;;
48516;SDS011;34310;51.904;4.256;2022-12-10T12:46:33;32.33;;;21.30;;
48516;SDS011;34310;51.904;4.256;2022-12-10T12:52:43;33.20;;;21.15;;
48516;SDS011;34310;51.904;4.256;2022-12-10T12:55:11;30.50;;;20.42;;
48516;SDS011;34310;51.904;4.256;2022-12-10T12:57:54;31.35;;;21.15;;
48516;SDS011;34310;51.904;4.256;2022-12-10T13:00:37;28.23;;;20.38;;
48516;SDS011;34310;51.904;4.256;2022-12-10T13:06:15;30.63;;;21.38;;
48516;SDS011;34310;51.904;4.256;2022-12-10T13:12:16;35.15;;;22.77;;
48516;SDS011;34310;51.904;4.256;2022-12-10T13:20:00;35.22;;;22.77;;
48516;SDS011;34310;51.904;4.256;2022-12-10T13:23:28;34.28;;;21.15;;
48516;SDS011;34310;51.904;4.256;2022-12-10T13:25:56;34.55;;;22.50;;
48516;SDS011;34310;51.904;4.256;2022-12-10T13:42:20;32.95;;;22.35;;
48516;SDS011;34310;51.904;4.256;2022-12-10T13:45:22;35.65;;;22.75;;
48516;SDS011;34310;51.904;4.256;2022-12-10T13:53:43;35.10;;;22.65;;
48516;SDS011;34310;51.904;4.256;2022-12-10T14:07:17;33.33;;;20.83;;
48516;SDS011;34310;51.904;4.256;2022-12-10T14:09:52;32.13;;;21.95;;
48516;SDS011;34310;51.904;4.256;2022-12-10T14:12:31;31.75;;;21.33;;
48516;SDS011;34310;51.904;4.256;2022-12-10T14:15:03;30.98;;;21.73;;
48516;SDS011;34310;51.904;4.256;2022-12-10T14:17:37;31.40;;;21.67;;
48516;SDS011;34310;51.904;4.256;2022-12-10T14:20:07;33.80;;;21.88;;
48516;SDS011;34310;51.904;4.256;2022-12-10T14:22:50;32.38;;;21.20;;
48516;SDS011;34310;51.904;4.256;2022-12-10T14:25:21;32.88;;;21.27;;
48516;SDS011;34310;51.904;4.256;2022-12-10T14:27:49;28.85;;;18.48;;
48516;SDS011;34310;51.904;4.256;2022-12-10T14:30:25;29.52;;;20.95;;
48516;SDS011;34310;51.904;4.256;2022-12-10T14:32:54;32.50;;;20.42;;
48516;SDS011;34310;51.904;4.256;2022-12-10T14:35:25;29.70;;;19.98;;
48516;SDS011;34310;51.904;4.256;2022-12-10T14:37:55;30.00;;;20.33;;
48516;SDS011;34310;51.904;4.256;2022-12-10T14:40:26;30.75;;;20.95;;
48516;SDS011;34310;51.904;4.256;2022-12-10T14:43:14;28.23;;;19.30;;
48516;SDS011;34310;51.904;4.256;2022-12-10T14:46:21;26.40;;;19.45;;
48516;SDS011;34310;51.904;4.256;2022-12-10T14:48:43;29.25;;;19.23;;
48516;SDS011;34310;51.904;4.256;2022-12-10T14:51:16;28.10;;;19.10;;
48516;SDS011;34310;51.904;4.256;2022-12-10T14:53:48;26.17;;;18.00;;
48516;SDS011;34310;51.904;4.256;2022-12-10T14:56:30;26.40;;;18.55;;
48516;SDS011;34310;51.904;4.256;2022-12-10T14:59:11;28.45;;;19.52;;
48516;SDS011;34310;51.904;4.256;2022-12-10T15:01:46;26.88;;;18.40;;
48516;SDS011;34310;51.904;4.256;2022-12-10T15:04:19;27.45;;;19.88;;
48516;SDS011;34310;51.904;4.256;2022-12-10T15:06:52;27.83;;;19.17;;
48516;SDS011;34310;51.904;4.256;2022-12-10T15:09:26;40.60;;;25.23;;
48516;SDS011;34310;51.904;4.256;2022-12-10T15:11:57;84.68;;;37.53;;
48516;SDS011;34310;51.904;4.256;2022-12-10T15:14:27;93.90;;;40.85;;
48516;SDS011;34310;51.904;4.256;2022-12-10T15:16:56;76.20;;;36.92;;
48516;SDS011;34310;51.904;4.256;2022-12-10T15:21:59;56.22;;;30.58;;
48516;SDS011;34310;51.904;4.256;2022-12-10T15:24:41;46.45;;;27.20;;
48516;SDS011;34310;51.904;4.256;2022-12-10T15:27:19;46.08;;;25.75;;
48516;SDS011;34310;51.904;4.256;2022-12-10T15:29:48;48.88;;;25.40;;
48516;SDS011;34310;51.904;4.256;2022-12-10T15:32:34;44.53;;;24.63;;
48516;SDS011;34310;51.904;4.256;2022-12-10T15:35:02;43.20;;;23.95;;
48516;SDS011;34310;51.904;4.256;2022-12-10T15:37:43;40.70;;;23.17;;
48516;SDS011;34310;51.904;4.256;2022-12-10T15:40:22;41.33;;;24.45;;
48516;SDS011;34310;51.904;4.256;2022-12-10T15:42:55;39.33;;;24.23;;
48516;SDS011;34310;51.904;4.256;2022-12-10T15:45:39;42.15;;;24.30;;
48516;SDS011;34310;51.904;4.256;2022-12-10T15:48:09;40.30;;;24.98;;
48516;SDS011;34310;51.904;4.256;2022-12-10T15:50:42;41.85;;;24.30;;
48516;SDS011;34310;51.904;4.256;2022-12-10T15:53:11;43.03;;;24.25;;
48516;SDS011;34310;51.904;4.256;2022-12-10T15:55:40;36.72;;;23.13;;
48516;SDS011;34310;51.904;4.256;2022-12-10T15:58:11;35.45;;;23.05;;
48516;SDS011;34310;51.904;4.256;2022-12-10T16:00:40;35.78;;;22.40;;
48516;SDS011;34310;51.904;4.256;2022-12-10T16:03:11;34.20;;;23.15;;
48516;SDS011;34310;51.904;4.256;2022-12-10T16:05:43;37.20;;;22.73;;
48516;SDS011;34310;51.904;4.256;2022-12-10T16:08:19;33.08;;;21.00;;
48516;SDS011;34310;51.904;4.256;2022-12-10T16:10:51;34.28;;;22.60;;
48516;SDS011;34310;51.904;4.256;2022-12-10T16:13:21;33.85;;;21.38;;
48516;SDS011;34310;51.904;4.256;2022-12-10T16:15:53;35.72;;;21.00;;
48516;SDS011;34310;51.904;4.256;2022-12-10T16:18:23;37.53;;;21.33;;
48516;SDS011;34310;51.904;4.256;2022-12-10T16:20:58;31.77;;;21.55;;
48516;SDS011;34310;51.904;4.256;2022-12-10T16:23:25;34.78;;;20.42;;
48516;SDS011;34310;51.904;4.256;2022-12-10T16:25:53;33.70;;;20.90;;
48516;SDS011;34310;51.904;4.256;2022-12-10T16:28:21;33.88;;;20.65;;
48516;SDS011;34310;51.904;4.256;2022-12-10T16:30:50;30.75;;;19.33;;
48516;SDS011;34310;51.904;4.256;2022-12-10T16:33:23;35.10;;;19.63;;
48516;SDS011;34310;51.904;4.256;2022-12-10T16:35:52;30.38;;;19.13;;
48516;SDS011;34310;51.904;4.256;2022-12-10T16:38:21;30.95;;;18.50;;
48516;SDS011;34310;51.904;4.256;2022-12-10T16:40:49;31.33;;;18.85;;
48516;SDS011;34310;51.904;4.256;2022-12-10T16:43:18;27.15;;;17.60;;
48516;SDS011;34310;51.904;4.256;2022-12-10T16:45:48;27.38;;;17.23;;